sensor_id;sensor_type;location;lat;lon;timestamp;P1;durP1;ratioP1;P2;durP2;ratioP2
2824;SDS011;1420;51.324;12.344;2022-09-03T00:02:42;19.20;;;14.60;;
2824;SDS011;1420;51.324;12.344;2022-09-03T00:05:12;20.16;;;15.40;;
2824;SDS011;1420;51.324;12.344;2022-09-03T00:07:46;23.44;;;20.98;;
2824;SDS011;1420;51.324;12.344;2022-09-03T00:10:15;22.00;;;17.66;;
2824;SDS011;1420;51.324;12.344;2022-09-03T00:12:43;29.28;;;26.68;;
2824;SDS011;1420;51.324;12.344;2022-09-03T00:15:12;32.86;;;29.82;;
2824;SDS011;1420;51.324;12.344;2022-09-03T00:17:43;22.54;;;18.86;;
2824;SDS011;1420;51.324;12.344;2022-09-03T00:20:30;33.24;;;28.46;;
2824;SDS011;1420;51.324;12.344;2022-09-03T00:22:56;54.06;;;50.32;;
2824;SDS011;1420;51.324;12.344;2022-09-03T00:25:28;43.38;;;39.62;;
2824;SDS011;1420;51.324;12.344;2022-09-03T00:27:53;78.78;;;73.42;;
2824;SDS011;1420;51.324;12.344;2022-09-03T00:30:20;37.56;;;34.38;;
2824;SDS011;1420;51.324;12.344;2022-09-03T00:32:55;52.44;;;48.54;;
2824;SDS011;1420;51.324;12.344;2022-09-03T00:35:23;37.20;;;34.46;;
2824;SDS011;1420;51.324;12.344;2022-09-03T00:37:51;40.08;;;36.58;;
2824;SDS011;1420;51.324;12.344;2022-09-03T00:40:22;43.22;;;39.90;;
2824;SDS011;1420;51.324;12.344;2022-09-03T00:42:55;52.54;;;48.48;;
2824;SDS011;1420;51.324;12.344;2022-09-03T00:45:28;33.62;;;30.80;;
2824;SDS011;1420;51.324;12.344;2022-09-03T00:47:57;67.78;;;61.90;;
2824;SDS011;1420;51.324;12.344;2022-09-03T00:50:52;56.22;;;51.40;;
2824;SDS011;1420;51.324;12.344;2022-09-03T00:53:21;32.74;;;29.92;;
2824;SDS011;1420;51.324;12.344;2022-09-03T00:55:51;55.14;;;46.52;;
2824;SDS011;1420;51.324;12.344;2022-09-03T00:58:31;33.04;;;30.22;;
2824;SDS011;1420;51.324;12.344;2022-09-03T01:01:04;33.44;;;30.70;;
2824;SDS011;1420;51.324;12.344;2022-09-03T01:03:32;52.62;;;47.90;;
2824;SDS011;1420;51.324;12.344;2022-09-03T01:06:16;93.26;;;86.74;;
2824;SDS011;1420;51.324;12.344;2022-09-03T01:08:49;41.46;;;37.92;;
2824;SDS011;1420;51.324;12.344;2022-09-03T01:11:20;68.12;;;63.70;;
2824;SDS011;1420;51.324;12.344;2022-09-03T01:13:49;61.68;;;56.88;;
2824;SDS011;1420;51.324;12.344;2022-09-03T01:16:21;47.16;;;43.56;;
2824;SDS011;1420;51.324;12.344;2022-09-03T01:19:12;49.98;;;45.86;;
2824;SDS011;1420;51.324;12.344;2022-09-03T01:21:50;78.60;;;73.16;;
2824;SDS011;1420;51.324;12.344;2022-09-03T01:24:21;55.16;;;50.84;;
2824;SDS011;1420;51.324;12.344;2022-09-03T01:26:49;41.04;;;37.30;;
2824;SDS011;1420;51.324;12.344;2022-09-03T01:31:51;44.50;;;40.68;;
2824;SDS011;1420;51.324;12.344;2022-09-03T01:34:43;53.96;;;49.90;;
2824;SDS011;1420;51.324;12.344;2022-09-03T01:37:25;83.22;;;77.38;;
2824;SDS011;1420;51.324;12.344;2022-09-03T01:39:59;71.36;;;66.28;;
2824;SDS011;1420;51.324;12.344;2022-09-03T01:45:22;50.06;;;46.02;;
2824;SDS011;1420;51.324;12.344;2022-09-03T01:47:55;106.52;;;97.00;;
2824;SDS011;1420;51.324;12.344;2022-09-03T01:50:42;75.70;;;69.44;;
2824;SDS011;1420;51.324;12.344;2022-09-03T01:53:13;54.18;;;49.90;;
2824;SDS011;1420;51.324;12.344;2022-09-03T01:55:53;74.84;;;69.10;;
2824;SDS011;1420;51.324;12.344;2022-09-03T01:58:19;60.02;;;55.64;;
2824;SDS011;1420;51.324;12.344;2022-09-03T02:00:45;101.04;;;94.28;;
2824;SDS011;1420;51.324;12.344;2022-09-03T02:03:13;53.66;;;48.64;;
2824;SDS011;1420;51.324;12.344;2022-09-03T02:05:39;57.42;;;52.48;;
2824;SDS011;1420;51.324;12.344;2022-09-03T02:08:07;52.62;;;48.82;;
2824;SDS011;1420;51.324;12.344;2022-09-03T02:10:37;45.42;;;41.80;;
2824;SDS011;1420;51.324;12.344;2022-09-03T02:13:06;73.64;;;68.48;;
2824;SDS011;1420;51.324;12.344;2022-09-03T02:15:31;73.82;;;68.52;;
2824;SDS011;1420;51.324;12.344;2022-09-03T02:17:59;90.60;;;83.64;;
2824;SDS011;1420;51.324;12.344;2022-09-03T02:20:26;67.98;;;63.38;;
2824;SDS011;1420;51.324;12.344;2022-09-03T02:22:53;87.28;;;81.26;;
2824;SDS011;1420;51.324;12.344;2022-09-03T02:25:20;72.70;;;67.64;;
2824;SDS011;1420;51.324;12.344;2022-09-03T02:27:47;73.86;;;68.92;;
2824;SDS011;1420;51.324;12.344;2022-09-03T02:30:14;100.70;;;93.96;;
2824;SDS011;1420;51.324;12.344;2022-09-03T02:32:41;124.54;;;115.62;;
2824;SDS011;1420;51.324;12.344;2022-09-03T02:35:09;76.92;;;71.38;;
2824;SDS011;1420;51.324;12.344;2022-09-03T02:37:36;111.22;;;103.90;;
2824;SDS011;1420;51.324;12.344;2022-09-03T02:40:04;69.20;;;64.02;;
2824;SDS011;1420;51.324;12.344;2022-09-03T02:45:18;85.96;;;80.52;;
2824;SDS011;1420;51.324;12.344;2022-09-03T02:47:43;90.06;;;84.08;;
2824;SDS011;1420;51.324;12.344;2022-09-03T02:50:10;82.26;;;76.94;;
2824;SDS011;1420;51.324;12.344;2022-09-03T02:52:37;100.10;;;92.68;;
2824;SDS011;1420;51.324;12.344;2022-09-03T02:55:04;120.44;;;113.12;;
2824;SDS011;1420;51.324;12.344;2022-09-03T02:57:32;82.94;;;77.44;;
2824;SDS011;1420;51.324;12.344;2022-09-03T03:00:00;93.78;;;87.70;;
2824;SDS011;1420;51.324;12.344;2022-09-03T03:02:27;84.04;;;78.20;;
2824;SDS011;1420;51.324;12.344;2022-09-03T03:04:55;71.74;;;66.82;;
2824;SDS011;1420;51.324;12.344;2022-09-03T03:07:22;96.04;;;89.06;;
2824;SDS011;1420;51.324;12.344;2022-09-03T03:09:49;65.02;;;60.38;;
2824;SDS011;1420;51.324;12.344;2022-09-03T03:12:17;96.62;;;89.80;;
2824;SDS011;1420;51.324;12.344;2022-09-03T03:14:44;89.82;;;83.78;;
2824;SDS011;1420;51.324;12.344;2022-09-03T03:17:11;117.30;;;109.48;;
2824;SDS011;1420;51.324;12.344;2022-09-03T03:19:38;131.36;;;123.36;;
2824;SDS011;1420;51.324;12.344;2022-09-03T03:22:05;93.68;;;88.04;;
2824;SDS011;1420;51.324;12.344;2022-09-03T03:24:33;109.74;;;103.28;;
2824;SDS011;1420;51.324;12.344;2022-09-03T03:27:01;133.12;;;125.14;;
2824;SDS011;1420;51.324;12.344;2022-09-03T03:29:28;107.50;;;100.22;;
2824;SDS011;1420;51.324;12.344;2022-09-03T03:31:55;136.52;;;127.28;;
2824;SDS011;1420;51.324;12.344;2022-09-03T03:34:22;60.54;;;56.60;;
2824;SDS011;1420;51.324;12.344;2022-09-03T03:36:50;66.20;;;61.98;;
2824;SDS011;1420;51.324;12.344;2022-09-03T03:39:17;84.74;;;78.68;;
2824;SDS011;1420;51.324;12.344;2022-09-03T03:41:45;72.66;;;67.66;;
2824;SDS011;1420;51.324;12.344;2022-09-03T03:44:12;75.74;;;70.06;;
2824;SDS011;1420;51.324;12.344;2022-09-03T03:46:40;53.16;;;49.10;;
2824;SDS011;1420;51.324;12.344;2022-09-03T03:49:07;96.92;;;90.20;;
2824;SDS011;1420;51.324;12.344;2022-09-03T03:51:34;70.48;;;64.66;;
2824;SDS011;1420;51.324;12.344;2022-09-03T03:54:01;59.74;;;55.08;;
2824;SDS011;1420;51.324;12.344;2022-09-03T03:56:29;95.62;;;88.96;;
2824;SDS011;1420;51.324;12.344;2022-09-03T03:58:57;68.56;;;63.72;;
2824;SDS011;1420;51.324;12.344;2022-09-03T04:01:24;49.12;;;44.62;;
2824;SDS011;1420;51.324;12.344;2022-09-03T04:03:54;48.90;;;44.70;;
2824;SDS011;1420;51.324;12.344;2022-09-03T04:06:21;58.60;;;54.34;;
2824;SDS011;1420;51.324;12.344;2022-09-03T04:08:48;61.10;;;56.92;;
2824;SDS011;1420;51.324;12.344;2022-09-03T04:11:18;65.62;;;60.78;;
2824;SDS011;1420;51.324;12.344;2022-09-03T04:13:45;44.20;;;40.62;;
2824;SDS011;1420;51.324;12.344;2022-09-03T04:16:13;57.52;;;53.34;;
2824;SDS011;1420;51.324;12.344;2022-09-03T04:18:40;84.22;;;78.32;;
2824;SDS011;1420;51.324;12.344;2022-09-03T04:21:09;47.74;;;43.98;;
2824;SDS011;1420;51.324;12.344;2022-09-03T04:23:37;65.90;;;60.70;;
2824;SDS011;1420;51.324;12.344;2022-09-03T04:26:03;62.38;;;57.94;;
2824;SDS011;1420;51.324;12.344;2022-09-03T04:28:30;84.12;;;78.68;;
2824;SDS011;1420;51.324;12.344;2022-09-03T04:31:07;81.16;;;75.82;;
2824;SDS011;1420;51.324;12.344;2022-09-03T04:33:34;66.32;;;62.04;;
2824;SDS011;1420;51.324;12.344;2022-09-03T04:36:08;58.08;;;53.84;;
2824;SDS011;1420;51.324;12.344;2022-09-03T04:38:36;48.74;;;45.14;;
2824;SDS011;1420;51.324;12.344;2022-09-03T04:41:03;72.76;;;67.92;;
2824;SDS011;1420;51.324;12.344;2022-09-03T04:43:30;43.46;;;39.64;;
2824;SDS011;1420;51.324;12.344;2022-09-03T04:45:58;50.80;;;46.82;;
2824;SDS011;1420;51.324;12.344;2022-09-03T04:48:26;44.96;;;41.02;;
2824;SDS011;1420;51.324;12.344;2022-09-03T04:50:53;39.32;;;36.14;;
2824;SDS011;1420;51.324;12.344;2022-09-03T04:53:20;42.06;;;38.50;;
2824;SDS011;1420;51.324;12.344;2022-09-03T04:55:47;40.12;;;37.12;;
2824;SDS011;1420;51.324;12.344;2022-09-03T04:58:15;74.08;;;69.62;;
2824;SDS011;1420;51.324;12.344;2022-09-03T05:00:43;30.32;;;27.78;;
2824;SDS011;1420;51.324;12.344;2022-09-03T05:03:11;61.20;;;56.32;;
2824;SDS011;1420;51.324;12.344;2022-09-03T05:05:38;41.10;;;37.78;;
2824;SDS011;1420;51.324;12.344;2022-09-03T05:08:06;46.20;;;42.38;;
2824;SDS011;1420;51.324;12.344;2022-09-03T05:10:33;43.20;;;40.02;;
2824;SDS011;1420;51.324;12.344;2022-09-03T05:13:01;30.94;;;28.16;;
2824;SDS011;1420;51.324;12.344;2022-09-03T05:15:28;39.78;;;36.16;;
2824;SDS011;1420;51.324;12.344;2022-09-03T05:17:58;50.92;;;47.00;;
2824;SDS011;1420;51.324;12.344;2022-09-03T05:20:26;44.52;;;40.28;;
2824;SDS011;1420;51.324;12.344;2022-09-03T05:22:53;25.28;;;22.64;;
2824;SDS011;1420;51.324;12.344;2022-09-03T05:25:21;25.70;;;23.30;;
2824;SDS011;1420;51.324;12.344;2022-09-03T05:27:49;22.76;;;20.44;;
2824;SDS011;1420;51.324;12.344;2022-09-03T05:30:17;29.36;;;26.50;;
2824;SDS011;1420;51.324;12.344;2022-09-03T05:32:44;34.34;;;31.62;;
2824;SDS011;1420;51.324;12.344;2022-09-03T05:35:11;23.20;;;20.80;;
2824;SDS011;1420;51.324;12.344;2022-09-03T05:37:38;24.40;;;22.16;;
2824;SDS011;1420;51.324;12.344;2022-09-03T05:40:06;17.94;;;13.18;;
2824;SDS011;1420;51.324;12.344;2022-09-03T05:42:34;23.02;;;20.76;;
2824;SDS011;1420;51.324;12.344;2022-09-03T05:45:01;19.24;;;17.22;;
2824;SDS011;1420;51.324;12.344;2022-09-03T05:47:28;19.50;;;16.36;;
2824;SDS011;1420;51.324;12.344;2022-09-03T05:49:56;22.52;;;19.86;;
2824;SDS011;1420;51.324;12.344;2022-09-03T05:52:23;17.90;;;13.10;;
2824;SDS011;1420;51.324;12.344;2022-09-03T05:54:50;37.40;;;34.44;;
2824;SDS011;1420;51.324;12.344;2022-09-03T05:57:17;27.60;;;25.08;;
2824;SDS011;1420;51.324;12.344;2022-09-03T05:59:45;18.28;;;14.68;;
2824;SDS011;1420;51.324;12.344;2022-09-03T06:02:13;19.42;;;17.44;;
2824;SDS011;1420;51.324;12.344;2022-09-03T06:04:41;16.54;;;12.00;;
2824;SDS011;1420;51.324;12.344;2022-09-03T06:07:09;14.34;;;7.64;;
2824;SDS011;1420;51.324;12.344;2022-09-03T06:09:37;13.20;;;5.66;;
2824;SDS011;1420;51.324;12.344;2022-09-03T06:12:05;16.98;;;13.14;;
2824;SDS011;1420;51.324;12.344;2022-09-03T06:14:32;12.50;;;5.98;;
2824;SDS011;1420;51.324;12.344;2022-09-03T06:17:00;12.74;;;4.20;;
2824;SDS011;1420;51.324;12.344;2022-09-03T06:19:27;10.96;;;1.74;;
2824;SDS011;1420;51.324;12.344;2022-09-03T06:21:54;9.78;;;1.50;;
2824;SDS011;1420;51.324;12.344;2022-09-03T06:24:21;10.34;;;1.44;;
2824;SDS011;1420;51.324;12.344;2022-09-03T06:26:48;10.00;;;1.66;;
2824;SDS011;1420;51.324;12.344;2022-09-03T06:29:16;10.04;;;1.32;;
2824;SDS011;1420;51.324;12.344;2022-09-03T06:31:44;10.60;;;1.76;;
2824;SDS011;1420;51.324;12.344;2022-09-03T06:34:12;9.80;;;1.44;;
2824;SDS011;1420;51.324;12.344;2022-09-03T06:36:40;10.84;;;1.06;;
2824;SDS011;1420;51.324;12.344;2022-09-03T06:39:07;10.24;;;1.24;;
2824;SDS011;1420;51.324;12.344;2022-09-03T06:41:34;10.58;;;2.12;;
2824;SDS011;1420;51.324;12.344;2022-09-03T06:44:03;10.10;;;1.12;;
2824;SDS011;1420;51.324;12.344;2022-09-03T06:46:30;10.94;;;1.32;;
2824;SDS011;1420;51.324;12.344;2022-09-03T06:48:58;11.34;;;1.92;;
2824;SDS011;1420;51.324;12.344;2022-09-03T06:51:25;11.00;;;1.40;;
2824;SDS011;1420;51.324;12.344;2022-09-03T06:53:53;13.82;;;2.38;;
2824;SDS011;1420;51.324;12.344;2022-09-03T06:56:20;11.52;;;1.46;;
2824;SDS011;1420;51.324;12.344;2022-09-03T06:58:48;11.20;;;1.44;;
2824;SDS011;1420;51.324;12.344;2022-09-03T07:01:17;12.14;;;1.36;;
2824;SDS011;1420;51.324;12.344;2022-09-03T07:03:43;13.28;;;1.20;;
2824;SDS011;1420;51.324;12.344;2022-09-03T07:06:12;12.48;;;1.52;;
2824;SDS011;1420;51.324;12.344;2022-09-03T07:08:39;15.30;;;1.56;;
2824;SDS011;1420;51.324;12.344;2022-09-03T07:11:07;12.30;;;1.08;;
2824;SDS011;1420;51.324;12.344;2022-09-03T07:13:35;12.46;;;1.54;;
2824;SDS011;1420;51.324;12.344;2022-09-03T07:16:04;12.32;;;0.94;;
2824;SDS011;1420;51.324;12.344;2022-09-03T07:18:30;13.96;;;2.00;;
2824;SDS011;1420;51.324;12.344;2022-09-03T07:20:58;16.74;;;5.68;;
2824;SDS011;1420;51.324;12.344;2022-09-03T07:23:25;13.08;;;1.20;;
2824;SDS011;1420;51.324;12.344;2022-09-03T07:25:54;13.32;;;1.20;;
2824;SDS011;1420;51.324;12.344;2022-09-03T07:28:22;13.10;;;1.30;;
2824;SDS011;1420;51.324;12.344;2022-09-03T07:30:50;14.48;;;3.74;;
2824;SDS011;1420;51.324;12.344;2022-09-03T07:33:17;13.72;;;1.38;;
2824;SDS011;1420;51.324;12.344;2022-09-03T07:35:45;20.08;;;3.88;;
2824;SDS011;1420;51.324;12.344;2022-09-03T07:38:16;15.12;;;3.04;;
2824;SDS011;1420;51.324;12.344;2022-09-03T07:40:43;14.04;;;1.48;;
2824;SDS011;1420;51.324;12.344;2022-09-03T07:43:10;14.28;;;1.66;;
2824;SDS011;1420;51.324;12.344;2022-09-03T07:45:37;14.56;;;1.40;;
2824;SDS011;1420;51.324;12.344;2022-09-03T07:48:04;15.80;;;1.44;;
2824;SDS011;1420;51.324;12.344;2022-09-03T07:50:31;15.00;;;1.48;;
2824;SDS011;1420;51.324;12.344;2022-09-03T07:52:59;14.36;;;2.38;;
2824;SDS011;1420;51.324;12.344;2022-09-03T07:55:26;14.36;;;2.28;;
2824;SDS011;1420;51.324;12.344;2022-09-03T07:57:55;14.52;;;2.06;;
2824;SDS011;1420;51.324;12.344;2022-09-03T08:00:21;16.24;;;2.52;;
2824;SDS011;1420;51.324;12.344;2022-09-03T08:02:50;23.90;;;13.14;;
2824;SDS011;1420;51.324;12.344;2022-09-03T08:05:17;18.06;;;4.46;;
2824;SDS011;1420;51.324;12.344;2022-09-03T08:07:44;15.78;;;3.48;;
2824;SDS011;1420;51.324;12.344;2022-09-03T08:10:13;15.24;;;1.90;;
2824;SDS011;1420;51.324;12.344;2022-09-03T08:12:40;15.14;;;2.02;;
2824;SDS011;1420;51.324;12.344;2022-09-03T08:15:08;14.62;;;2.10;;
2824;SDS011;1420;51.324;12.344;2022-09-03T08:17:35;15.04;;;2.40;;
2824;SDS011;1420;51.324;12.344;2022-09-03T08:20:03;13.40;;;2.18;;
2824;SDS011;1420;51.324;12.344;2022-09-03T08:22:30;15.56;;;2.92;;
2824;SDS011;1420;51.324;12.344;2022-09-03T08:24:57;20.18;;;3.58;;
2824;SDS011;1420;51.324;12.344;2022-09-03T08:27:24;15.52;;;3.50;;
2824;SDS011;1420;51.324;12.344;2022-09-03T08:29:52;15.18;;;3.10;;
2824;SDS011;1420;51.324;12.344;2022-09-03T08:32:20;15.66;;;2.72;;
2824;SDS011;1420;51.324;12.344;2022-09-03T08:34:48;17.02;;;2.20;;
2824;SDS011;1420;51.324;12.344;2022-09-03T08:37:16;19.56;;;10.38;;
2824;SDS011;1420;51.324;12.344;2022-09-03T08:39:44;14.56;;;2.04;;
2824;SDS011;1420;51.324;12.344;2022-09-03T08:42:27;14.78;;;1.78;;
2824;SDS011;1420;51.324;12.344;2022-09-03T08:44:59;13.92;;;2.18;;
2824;SDS011;1420;51.324;12.344;2022-09-03T08:48:02;17.40;;;4.14;;
2824;SDS011;1420;51.324;12.344;2022-09-03T08:50:18;14.92;;;3.36;;
2824;SDS011;1420;51.324;12.344;2022-09-03T08:52:45;15.56;;;2.50;;
2824;SDS011;1420;51.324;12.344;2022-09-03T08:55:22;15.18;;;2.26;;
2824;SDS011;1420;51.324;12.344;2022-09-03T08:57:49;14.82;;;2.70;;
2824;SDS011;1420;51.324;12.344;2022-09-03T09:00:15;14.42;;;3.68;;
2824;SDS011;1420;51.324;12.344;2022-09-03T09:02:47;16.22;;;3.70;;
2824;SDS011;1420;51.324;12.344;2022-09-03T09:05:11;14.94;;;3.04;;
2824;SDS011;1420;51.324;12.344;2022-09-03T09:07:41;14.68;;;2.28;;
2824;SDS011;1420;51.324;12.344;2022-09-03T09:10:32;15.30;;;4.20;;
2824;SDS011;1420;51.324;12.344;2022-09-03T09:13:03;17.34;;;6.78;;
2824;SDS011;1420;51.324;12.344;2022-09-03T09:15:27;32.14;;;28.88;;
2824;SDS011;1420;51.324;12.344;2022-09-03T09:20:48;25.08;;;22.58;;
2824;SDS011;1420;51.324;12.344;2022-09-03T09:23:19;17.54;;;8.50;;
2824;SDS011;1420;51.324;12.344;2022-09-03T09:25:46;17.82;;;9.02;;
2824;SDS011;1420;51.324;12.344;2022-09-03T09:28:17;15.64;;;4.16;;
2824;SDS011;1420;51.324;12.344;2022-09-03T09:30:43;14.28;;;2.84;;
2824;SDS011;1420;51.324;12.344;2022-09-03T09:33:10;14.82;;;2.60;;
2824;SDS011;1420;51.324;12.344;2022-09-03T09:35:37;19.28;;;13.72;;
2824;SDS011;1420;51.324;12.344;2022-09-03T09:38:05;17.34;;;5.56;;
2824;SDS011;1420;51.324;12.344;2022-09-03T09:40:34;18.10;;;6.62;;
2824;SDS011;1420;51.324;12.344;2022-09-03T09:43:03;16.30;;;4.56;;
2824;SDS011;1420;51.324;12.344;2022-09-03T09:45:32;22.40;;;17.32;;
2824;SDS011;1420;51.324;12.344;2022-09-03T09:47:59;28.98;;;21.52;;
2824;SDS011;1420;51.324;12.344;2022-09-03T09:50:26;20.98;;;12.80;;
2824;SDS011;1420;51.324;12.344;2022-09-03T09:52:59;22.94;;;18.88;;
2824;SDS011;1420;51.324;12.344;2022-09-03T09:55:26;24.86;;;18.68;;
2824;SDS011;1420;51.324;12.344;2022-09-03T09:57:53;19.48;;;9.74;;
2824;SDS011;1420;51.324;12.344;2022-09-03T10:00:20;17.24;;;6.32;;
2824;SDS011;1420;51.324;12.344;2022-09-03T10:02:49;23.32;;;15.64;;
2824;SDS011;1420;51.324;12.344;2022-09-03T10:05:19;17.90;;;7.78;;
2824;SDS011;1420;51.324;12.344;2022-09-03T10:07:54;21.60;;;18.32;;
2824;SDS011;1420;51.324;12.344;2022-09-03T10:10:22;26.88;;;20.60;;
2824;SDS011;1420;51.324;12.344;2022-09-03T10:12:55;22.78;;;14.00;;
2824;SDS011;1420;51.324;12.344;2022-09-03T10:15:24;23.56;;;17.40;;
2824;SDS011;1420;51.324;12.344;2022-09-03T10:20:43;22.62;;;17.88;;
2824;SDS011;1420;51.324;12.344;2022-09-03T10:23:16;17.90;;;8.80;;
2824;SDS011;1420;51.324;12.344;2022-09-03T10:25:54;17.96;;;7.84;;
2824;SDS011;1420;51.324;12.344;2022-09-03T10:28:38;17.92;;;8.84;;
2824;SDS011;1420;51.324;12.344;2022-09-03T10:33:59;25.10;;;17.82;;
2824;SDS011;1420;51.324;12.344;2022-09-03T10:36:30;21.48;;;9.02;;
2824;SDS011;1420;51.324;12.344;2022-09-03T10:44:47;21.88;;;12.28;;
2824;SDS011;1420;51.324;12.344;2022-09-03T10:50:19;24.72;;;16.36;;
2824;SDS011;1420;51.324;12.344;2022-09-03T10:52:53;20.26;;;8.96;;
2824;SDS011;1420;51.324;12.344;2022-09-03T10:55:23;20.30;;;5.92;;
2824;SDS011;1420;51.324;12.344;2022-09-03T10:58:01;20.18;;;8.64;;
2824;SDS011;1420;51.324;12.344;2022-09-03T11:00:27;16.62;;;6.30;;
2824;SDS011;1420;51.324;12.344;2022-09-03T11:03:08;19.40;;;12.26;;
2824;SDS011;1420;51.324;12.344;2022-09-03T11:05:51;21.00;;;13.44;;
2824;SDS011;1420;51.324;12.344;2022-09-03T11:08:29;23.52;;;15.84;;
2824;SDS011;1420;51.324;12.344;2022-09-03T11:10:58;26.38;;;19.94;;
2824;SDS011;1420;51.324;12.344;2022-09-03T11:13:24;33.14;;;29.70;;
2824;SDS011;1420;51.324;12.344;2022-09-03T11:15:53;23.20;;;13.04;;
2824;SDS011;1420;51.324;12.344;2022-09-03T11:18:25;31.62;;;28.10;;
2824;SDS011;1420;51.324;12.344;2022-09-03T11:20:57;36.34;;;32.98;;
2824;SDS011;1420;51.324;12.344;2022-09-03T11:23:23;24.62;;;19.12;;
2824;SDS011;1420;51.324;12.344;2022-09-03T11:25:52;29.16;;;24.48;;
2824;SDS011;1420;51.324;12.344;2022-09-03T11:28:26;47.04;;;42.92;;
2824;SDS011;1420;51.324;12.344;2022-09-03T11:32:00;41.96;;;38.36;;
2824;SDS011;1420;51.324;12.344;2022-09-03T11:33:45;45.72;;;41.78;;
2824;SDS011;1420;51.324;12.344;2022-09-03T11:36:10;43.76;;;40.02;;
2824;SDS011;1420;51.324;12.344;2022-09-03T11:38:37;33.18;;;30.04;;
2824;SDS011;1420;51.324;12.344;2022-09-03T11:43:39;46.40;;;42.66;;
2824;SDS011;1420;51.324;12.344;2022-09-03T11:46:12;67.32;;;62.54;;
2824;SDS011;1420;51.324;12.344;2022-09-03T11:48:43;74.38;;;69.36;;
2824;SDS011;1420;51.324;12.344;2022-09-03T11:51:17;67.60;;;62.36;;
2824;SDS011;1420;51.324;12.344;2022-09-03T11:56:19;48.10;;;43.74;;
2824;SDS011;1420;51.324;12.344;2022-09-03T11:58:56;53.98;;;49.08;;
2824;SDS011;1420;51.324;12.344;2022-09-03T12:01:14;65.84;;;60.60;;
2824;SDS011;1420;51.324;12.344;2022-09-03T12:03:42;86.84;;;80.60;;
2824;SDS011;1420;51.324;12.344;2022-09-03T12:06:13;82.42;;;76.40;;
2824;SDS011;1420;51.324;12.344;2022-09-03T12:08:41;263.06;;;247.78;;
2824;SDS011;1420;51.324;12.344;2022-09-03T12:19:18;55.84;;;50.82;;
2824;SDS011;1420;51.324;12.344;2022-09-03T12:21:41;67.38;;;61.78;;
2824;SDS011;1420;51.324;12.344;2022-09-03T12:24:09;47.08;;;42.68;;
2824;SDS011;1420;51.324;12.344;2022-09-03T12:26:38;46.04;;;41.40;;
2824;SDS011;1420;51.324;12.344;2022-09-03T12:29:04;51.92;;;47.30;;
2824;SDS011;1420;51.324;12.344;2022-09-03T12:31:48;49.00;;;44.52;;
2824;SDS011;1420;51.324;12.344;2022-09-03T12:34:01;40.20;;;36.04;;
2824;SDS011;1420;51.324;12.344;2022-09-03T12:39:16;46.88;;;42.40;;
2824;SDS011;1420;51.324;12.344;2022-09-03T12:41:52;38.90;;;35.02;;
2824;SDS011;1420;51.324;12.344;2022-09-03T12:44:38;49.88;;;45.26;;
2824;SDS011;1420;51.324;12.344;2022-09-03T12:47:06;43.80;;;39.44;;
2824;SDS011;1420;51.324;12.344;2022-09-03T12:49:33;43.30;;;39.24;;
2824;SDS011;1420;51.324;12.344;2022-09-03T12:52:00;37.46;;;33.32;;
2824;SDS011;1420;51.324;12.344;2022-09-03T12:54:27;39.72;;;35.78;;
2824;SDS011;1420;51.324;12.344;2022-09-03T12:56:55;46.46;;;42.18;;
2824;SDS011;1420;51.324;12.344;2022-09-03T12:59:21;62.94;;;57.86;;
2824;SDS011;1420;51.324;12.344;2022-09-03T13:01:50;45.82;;;41.44;;
2824;SDS011;1420;51.324;12.344;2022-09-03T13:04:18;50.36;;;46.00;;
2824;SDS011;1420;51.324;12.344;2022-09-03T13:06:47;36.24;;;31.08;;
2824;SDS011;1420;51.324;12.344;2022-09-03T13:09:24;50.14;;;45.80;;
2824;SDS011;1420;51.324;12.344;2022-09-03T13:11:51;46.08;;;41.74;;
2824;SDS011;1420;51.324;12.344;2022-09-03T13:14:18;74.32;;;68.52;;
2824;SDS011;1420;51.324;12.344;2022-09-03T13:16:51;57.76;;;52.86;;
2824;SDS011;1420;51.324;12.344;2022-09-03T13:19:21;44.14;;;39.94;;
2824;SDS011;1420;51.324;12.344;2022-09-03T13:22:58;44.48;;;40.06;;
2824;SDS011;1420;51.324;12.344;2022-09-03T13:25:12;78.54;;;72.94;;
2824;SDS011;1420;51.324;12.344;2022-09-03T13:27:32;33.48;;;24.44;;
2824;SDS011;1420;51.324;12.344;2022-09-03T13:30:04;45.84;;;41.44;;
2824;SDS011;1420;51.324;12.344;2022-09-03T13:35:32;195.08;;;183.54;;
2824;SDS011;1420;51.324;12.344;2022-09-03T13:38:00;32.40;;;24.58;;
2824;SDS011;1420;51.324;12.344;2022-09-03T13:40:25;35.18;;;22.50;;
2824;SDS011;1420;51.324;12.344;2022-09-03T13:42:54;158.68;;;148.44;;
2824;SDS011;1420;51.324;12.344;2022-09-03T13:45:27;55.26;;;50.18;;
2824;SDS011;1420;51.324;12.344;2022-09-03T13:47:55;36.18;;;31.36;;
2824;SDS011;1420;51.324;12.344;2022-09-03T13:50:43;33.82;;;25.40;;
2824;SDS011;1420;51.324;12.344;2022-09-03T13:53:16;74.82;;;69.24;;
2824;SDS011;1420;51.324;12.344;2022-09-03T13:55:55;35.34;;;29.50;;
2824;SDS011;1420;51.324;12.344;2022-09-03T14:03:45;37.92;;;34.06;;
2824;SDS011;1420;51.324;12.344;2022-09-03T14:10:00;34.16;;;28.84;;
2824;SDS011;1420;51.324;12.344;2022-09-03T14:15:02;32.78;;;28.60;;
2824;SDS011;1420;51.324;12.344;2022-09-03T14:20:12;70.86;;;65.56;;
2824;SDS011;1420;51.324;12.344;2022-09-03T14:22:43;32.42;;;22.90;;
2824;SDS011;1420;51.324;12.344;2022-09-03T14:25:10;35.88;;;30.70;;
2824;SDS011;1420;51.324;12.344;2022-09-03T14:27:36;66.02;;;61.10;;
2824;SDS011;1420;51.324;12.344;2022-09-03T14:30:05;33.60;;;30.06;;
2824;SDS011;1420;51.324;12.344;2022-09-03T14:32:39;35.04;;;31.22;;
2824;SDS011;1420;51.324;12.344;2022-09-03T14:40:46;31.86;;;26.32;;
2824;SDS011;1420;51.324;12.344;2022-09-03T14:46:18;39.30;;;35.60;;
2824;SDS011;1420;51.324;12.344;2022-09-03T14:49:05;36.02;;;32.18;;
2824;SDS011;1420;51.324;12.344;2022-09-03T14:51:38;83.10;;;77.06;;
2824;SDS011;1420;51.324;12.344;2022-09-03T14:54:19;32.04;;;25.54;;
2824;SDS011;1420;51.324;12.344;2022-09-03T14:56:58;41.82;;;35.22;;
2824;SDS011;1420;51.324;12.344;2022-09-03T14:59:31;36.74;;;31.50;;
2824;SDS011;1420;51.324;12.344;2022-09-03T15:08:52;33.72;;;27.40;;
2824;SDS011;1420;51.324;12.344;2022-09-03T15:10:36;30.30;;;22.94;;
2824;SDS011;1420;51.324;12.344;2022-09-03T15:18:28;32.14;;;28.46;;
2824;SDS011;1420;51.324;12.344;2022-09-03T15:20:57;35.68;;;31.16;;
2824;SDS011;1420;51.324;12.344;2022-09-03T15:23:46;32.10;;;23.62;;
2824;SDS011;1420;51.324;12.344;2022-09-03T15:30:14;29.08;;;21.74;;
2824;SDS011;1420;51.324;12.344;2022-09-03T15:32:02;29.60;;;21.36;;
2824;SDS011;1420;51.324;12.344;2022-09-03T15:34:45;31.08;;;27.52;;
2824;SDS011;1420;51.324;12.344;2022-09-03T15:37:25;32.42;;;24.60;;
2824;SDS011;1420;51.324;12.344;2022-09-03T15:40:07;32.72;;;26.72;;
2824;SDS011;1420;51.324;12.344;2022-09-03T15:42:35;30.14;;;24.56;;
2824;SDS011;1420;51.324;12.344;2022-09-03T15:45:12;32.32;;;28.88;;
2824;SDS011;1420;51.324;12.344;2022-09-03T15:47:52;31.86;;;26.86;;
2824;SDS011;1420;51.324;12.344;2022-09-03T15:50:28;32.08;;;27.82;;
2824;SDS011;1420;51.324;12.344;2022-09-03T15:52:55;31.28;;;25.94;;
2824;SDS011;1420;51.324;12.344;2022-09-03T15:55:36;34.92;;;31.14;;
2824;SDS011;1420;51.324;12.344;2022-09-03T15:58:10;30.04;;;22.88;;
2824;SDS011;1420;51.324;12.344;2022-09-03T16:00:59;29.34;;;23.16;;
2824;SDS011;1420;51.324;12.344;2022-09-03T16:03:33;29.52;;;24.94;;
2824;SDS011;1420;51.324;12.344;2022-09-03T16:06:02;30.96;;;24.34;;
2824;SDS011;1420;51.324;12.344;2022-09-03T16:11:17;32.36;;;27.28;;
2824;SDS011;1420;51.324;12.344;2022-09-03T16:16:27;29.70;;;22.82;;
2824;SDS011;1420;51.324;12.344;2022-09-03T16:18:56;29.82;;;22.80;;
2824;SDS011;1420;51.324;12.344;2022-09-03T16:21:28;65.44;;;60.52;;